YSWG/WGA METAR and TAF weather

Enter ICAO airport designator
Station Type Date Time Source
YSWG METAR 2019/10/14 06:00 UTC NOAA

YSWG 140600Z AUTO 10009KT 9999 // NCD 26/04 Q1010


Station Type Date Time Source
YSWG Decoded METAR 2019/10/14 06:00 UTC NOAA

Wagga Airport, Australia (YSWG) 35-09S 147-27E 213M
Oct 14, 2019 - 02:00 AM EDT / 2019.10.14 0600 UTC
Wind: from the E (100 degrees) at 10 MPH (9 KT):0
Visibility: greater than 7 mile(s):0
Temperature: 78 F (26 C)
Dew Point: 39 F (4 C)
Relative Humidity: 24%
Pressure (altimeter): 29.83 in. Hg (1010 hPa)
ob: YSWG 140600Z AUTO 10009KT 9999 // NCD 26/04 Q1010
cycle: 6

Station Type Date Time Source
YSWG TAF 2018/05/25 18:03 UTC NOAA

TAF YSWG 251649Z 2518/2608 07008KT CAVOK

Example: see airport list